Macondo — 3EYB9 — position and weather

sailwx.info

Track history (hours):
 
Tides and Currents Weather Stations Pressure Air Temp Water Temp Dewpoint Dewpoint Depression Visibility Wind Speed Wind Dir Waves Ship Positions

Macondo

Last reported at 2017-May-19 20:59 UTC. Time now 2017-May-25 03:11 UTC.
Position N 09°19' W 079°55'.

Length 120 m; draft 4.3 m.

Type: Ship. MMSI: 371293000.

Date/timePositionNaut miles runAvg speedWind from/ knotsBaromVisibWave heightAir tempDewpointWater temp
2017-May-19 20:59N 09°19' W 079°55'2 3.5
2017-May-19 20:29N 09°21' W 079°55'2 4.1
2017-May-19 19:58N 09°23' W 079°55'0 0.2
2017-May-19 19:28N 09°23' W 079°55'0 0.0
2017-May-19 18:57N 09°23' W 079°55'0 0.0
2017-May-19 18:24N 09°23' W 079°55'0 0.0
2017-May-19 18:00N 09°23' W 079°55'0 0.0
2017-May-19 17:09N 09°23' W 079°55'0 0.0
2017-May-19 16:57N 09°23' W 079°55'0 0.0
2017-May-19 16:29N 09°23' W 079°55'0 0.0
2017-May-19 15:59N 09°23' W 079°55'0 0.0
2017-May-19 15:23N 09°23' W 079°55'0 0.0
2017-May-19 14:50N 09°23' W 079°55'0 0.1
2017-May-19 13:58N 09°23' W 079°55'0 0.1
2017-May-19 13:22N 09°23' W 079°55'1 2.3
2017-May-19 13:00N 09°24' W 079°55'1 1.9
2017-May-19 12:28N 09°24' W 079°56'0 0.1
2017-May-19 11:13N 09°24' W 079°56'0 0.1
2017-May-19 10:58N 09°24' W 079°56'0 0.0
2017-May-19 10:21N 09°24' W 079°56'0 0.0
2017-May-19 06:47N 09°24' W 079°56'0 0.0
2017-May-19 02:30N 09°24' W 079°56'0 0.0
2017-May-19 01:30N 09°24' W 079°56'0 0.0
2017-May-19 00:59N 09°24' W 079°56'0 0.0
2017-May-19 00:26N 09°24' W 079°56'0 0.0
2017-May-18 23:35N 09°24' W 079°56'0 0.3
2017-May-18 23:30N 09°24' W 079°56'0 0.2
2017-May-18 22:59N 09°24' W 079°56'  
2017-May-11 13:31N 09°30' W 079°52'611.4
2017-May-11 13:00N 09°25' W 079°55'3 6.7
2017-May-11 12:30N 09°22' W 079°55'1 1.6
2017-May-11 12:00N 09°21' W 079°55'0 0.7
2017-May-11 11:30N 09°21' W 079°54'0 0.0
2017-May-11 11:00N 09°21' W 079°54'0 0.0
2017-May-11 10:30N 09°21' W 079°54'0 0.0
2017-May-11 10:00N 09°21' W 079°54'0 0.0
2017-May-11 09:30N 09°21' W 079°54'0 0.0
2017-May-11 09:00N 09°21' W 079°54'0 0.0
2017-May-11 08:30N 09°21' W 079°54'0 0.0
2017-May-11 08:01N 09°21' W 079°54'0 0.0
2017-May-11 07:30N 09°21' W 079°54'0 0.0
2017-May-11 07:00N 09°21' W 079°54'0 0.0
2017-May-11 06:30N 09°21' W 079°54'0 0.0
2017-May-11 06:00N 09°21' W 079°54'0 0.0
2017-May-11 05:30N 09°21' W 079°54'0 0.0
2017-May-11 05:00N 09°21' W 079°54'0 0.0
2017-May-11 04:30N 09°21' W 079°54'0 0.0
2017-May-11 04:00N 09°21' W 079°54'0 0.0
2017-May-11 03:30N 09°21' W 079°54'0 0.0
2017-May-11 03:01N 09°21' W 079°54'0 0.0
2017-May-11 02:30N 09°21' W 079°54'0 0.0
2017-May-11 02:01N 09°21' W 079°54'0 0.0
2017-May-11 01:30N 09°21' W 079°54'0 0.0
2017-May-11 01:00N 09°21' W 079°54'0 0.0
2017-May-11 00:30N 09°21' W 079°54'0 0.0
2017-May-11 00:00N 09°21' W 079°54'0 0.0
2017-May-10 23:30N 09°21' W 079°54'0 0.0
2017-May-10 23:00N 09°21' W 079°54'0 0.0
2017-May-10 22:30N 09°21' W 079°54'0 0.0
2017-May-10 22:00N 09°21' W 079°54'0 0.0
2017-May-10 21:31N 09°21' W 079°54'0 0.0
2017-May-10 21:00N 09°21' W 079°54'0 0.0
2017-May-10 20:31N 09°21' W 079°54'0 0.0
2017-May-10 20:01N 09°21' W 079°54'0 0.0
2017-May-10 19:30N 09°21' W 079°54'0 0.0
2017-May-10 19:00N 09°21' W 079°54'0 0.0
2017-May-10 18:30N 09°21' W 079°54'0 0.0
2017-May-10 18:00N 09°21' W 079°54'0 0.0
2017-May-10 17:30N 09°21' W 079°54'0 0.0
2017-May-10 17:00N 09°21' W 079°54'0 0.0
2017-May-10 16:30N 09°21' W 079°54'0 0.0
2017-May-10 16:00N 09°21' W 079°54'0 0.0
2017-May-10 15:30N 09°21' W 079°54'0 0.0
2017-May-10 15:00N 09°21' W 079°54'0 0.0
2017-May-10 14:31N 09°21' W 079°54'  
Track history (hours):
 
Tides and Currents Weather Stations Pressure Air Temp Water Temp Dewpoint Dewpoint Depression Visibility Wind Speed Wind Dir Waves Ship Positions

Macondo

Last reported at 2017-May-19 20:59 UTC. Time now 2017-May-25 03:11 UTC.
Position N 09°19' W 079°55'.

Length 120 m; draft 4.3 m.

Type: Ship. MMSI: 371293000.

Date/timePositionNaut miles runAvg speedWind from/ knotsBaromVisibWave heightAir tempDewpointWater temp
2017-May-19 20:59N 09°19' W 079°55'2 3.5
2017-May-19 20:29N 09°21' W 079°55'2 4.1
2017-May-19 19:58N 09°23' W 079°55'0 0.2
2017-May-19 19:28N 09°23' W 079°55'0 0.0
2017-May-19 18:57N 09°23' W 079°55'0 0.0
2017-May-19 18:24N 09°23' W 079°55'0 0.0
2017-May-19 18:00N 09°23' W 079°55'0 0.0
2017-May-19 17:09N 09°23' W 079°55'0 0.0
2017-May-19 16:57N 09°23' W 079°55'0 0.0
2017-May-19 16:29N 09°23' W 079°55'0 0.0
2017-May-19 15:59N 09°23' W 079°55'0 0.0
2017-May-19 15:23N 09°23' W 079°55'0 0.0
2017-May-19 14:50N 09°23' W 079°55'0 0.1
2017-May-19 13:58N 09°23' W 079°55'0 0.1
2017-May-19 13:22N 09°23' W 079°55'1 2.3
2017-May-19 13:00N 09°24' W 079°55'1 1.9
2017-May-19 12:28N 09°24' W 079°56'0 0.1
2017-May-19 11:13N 09°24' W 079°56'0 0.1
2017-May-19 10:58N 09°24' W 079°56'0 0.0
2017-May-19 10:21N 09°24' W 079°56'0 0.0
2017-May-19 06:47N 09°24' W 079°56'0 0.0
2017-May-19 02:30N 09°24' W 079°56'0 0.0
2017-May-19 01:30N 09°24' W 079°56'0 0.0
2017-May-19 00:59N 09°24' W 079°56'0 0.0
2017-May-19 00:26N 09°24' W 079°56'0 0.0
2017-May-18 23:35N 09°24' W 079°56'0 0.3
2017-May-18 23:30N 09°24' W 079°56'0 0.2
2017-May-18 22:59N 09°24' W 079°56'  
2017-May-11 13:31N 09°30' W 079°52'611.4
2017-May-11 13:00N 09°25' W 079°55'3 6.7
2017-May-11 12:30N 09°22' W 079°55'1 1.6
2017-May-11 12:00N 09°21' W 079°55'0 0.7
2017-May-11 11:30N 09°21' W 079°54'0 0.0
2017-May-11 11:00N 09°21' W 079°54'0 0.0
2017-May-11 10:30N 09°21' W 079°54'0 0.0
2017-May-11 10:00N 09°21' W 079°54'0 0.0
2017-May-11 09:30N 09°21' W 079°54'0 0.0
2017-May-11 09:00N 09°21' W 079°54'0 0.0
2017-May-11 08:30N 09°21' W 079°54'0 0.0
2017-May-11 08:01N 09°21' W 079°54'0 0.0
2017-May-11 07:30N 09°21' W 079°54'0 0.0
2017-May-11 07:00N 09°21' W 079°54'0 0.0
2017-May-11 06:30N 09°21' W 079°54'0 0.0
2017-May-11 06:00N 09°21' W 079°54'0 0.0
2017-May-11 05:30N 09°21' W 079°54'0 0.0
2017-May-11 05:00N 09°21' W 079°54'0 0.0
2017-May-11 04:30N 09°21' W 079°54'0 0.0
2017-May-11 04:00N 09°21' W 079°54'0 0.0
2017-May-11 03:30N 09°21' W 079°54'0 0.0
2017-May-11 03:01N 09°21' W 079°54'0 0.0
2017-May-11 02:30N 09°21' W 079°54'0 0.0
2017-May-11 02:01N 09°21' W 079°54'0 0.0
2017-May-11 01:30N 09°21' W 079°54'0 0.0
2017-May-11 01:00N 09°21' W 079°54'0 0.0
2017-May-11 00:30N 09°21' W 079°54'0 0.0
2017-May-11 00:00N 09°21' W 079°54'0 0.0
2017-May-10 23:30N 09°21' W 079°54'0 0.0
2017-May-10 23:00N 09°21' W 079°54'0 0.0
2017-May-10 22:30N 09°21' W 079°54'0 0.0
2017-May-10 22:00N 09°21' W 079°54'0 0.0
2017-May-10 21:31N 09°21' W 079°54'0 0.0
2017-May-10 21:00N 09°21' W 079°54'0 0.0
2017-May-10 20:31N 09°21' W 079°54'0 0.0
2017-May-10 20:01N 09°21' W 079°54'0 0.0
2017-May-10 19:30N 09°21' W 079°54'0 0.0
2017-May-10 19:00N 09°21' W 079°54'0 0.0
2017-May-10 18:30N 09°21' W 079°54'0 0.0
2017-May-10 18:00N 09°21' W 079°54'0 0.0
2017-May-10 17:30N 09°21' W 079°54'0 0.0
2017-May-10 17:00N 09°21' W 079°54'0 0.0
2017-May-10 16:30N 09°21' W 079°54'0 0.0
2017-May-10 16:00N 09°21' W 079°54'0 0.0
2017-May-10 15:30N 09°21' W 079°54'0 0.0
2017-May-10 15:00N 09°21' W 079°54'0 0.0
2017-May-10 14:31N 09°21' W 079°54'  

Dump ship's entire track history